sensor_id;sensor_type;location;lat;lon;timestamp;pressure;altitude;pressure_sealevel;temperature;humidity
63097;BME280;49185;42.320;23.198;2024-03-23T00:55:20;94864.66;;;0.33;100.00
63097;BME280;49185;42.320;23.198;2024-03-23T00:58:06;94857.34;;;0.28;100.00
63097;BME280;49185;42.320;23.198;2024-03-23T01:00:52;94857.72;;;0.25;100.00
63097;BME280;49185;42.320;23.198;2024-03-23T01:03:37;94862.25;;;0.16;100.00
63097;BME280;49185;42.320;23.198;2024-03-23T01:06:23;94856.91;;;0.25;100.00
63097;BME280;49185;42.320;23.198;2024-03-23T01:09:09;94862.50;;;0.22;100.00
63097;BME280;49185;42.320;23.198;2024-03-23T01:11:54;94861.22;;;0.17;100.00
63097;BME280;49185;42.320;23.198;2024-03-23T01:14:40;94857.72;;;-0.05;100.00
63097;BME280;49185;42.320;23.198;2024-03-23T01:17:26;94856.53;;;-0.02;100.00
63097;BME280;49185;42.320;23.198;2024-03-23T01:20:11;94860.06;;;-0.10;100.00
63097;BME280;49185;42.320;23.198;2024-03-23T01:22:57;94861.25;;;-0.12;100.00
63097;BME280;49185;42.320;23.198;2024-03-23T01:25:43;94861.31;;;-0.21;100.00
63097;BME280;49185;42.320;23.198;2024-03-23T01:28:28;94855.16;;;-0.28;100.00
63097;BME280;49185;42.320;23.198;2024-03-23T01:31:14;94856.53;;;-0.17;100.00
63097;BME280;49185;42.320;23.198;2024-03-23T01:34:00;94850.22;;;-0.23;100.00
63097;BME280;49185;42.320;23.198;2024-03-23T01:36:45;94851.38;;;-0.25;100.00
63097;BME280;49185;42.320;23.198;2024-03-23T01:39:31;94851.00;;;-0.37;100.00
63097;BME280;49185;42.320;23.198;2024-03-23T01:42:16;94849.66;;;-0.48;100.00
63097;BME280;49185;42.320;23.198;2024-03-23T01:45:07;94845.38;;;-0.49;100.00
63097;BME280;49185;42.320;23.198;2024-03-23T01:47:53;94852.72;;;-0.44;100.00
63097;BME280;49185;42.320;23.198;2024-03-23T01:50:39;94845.22;;;-0.32;100.00
63097;BME280;49185;42.320;23.198;2024-03-23T01:53:24;94852.56;;;-0.28;100.00
63097;BME280;49185;42.320;23.198;2024-03-23T01:56:10;94839.38;;;-0.34;100.00
63097;BME280;49185;42.320;23.198;2024-03-23T01:58:56;94845.63;;;-0.59;100.00
63097;BME280;49185;42.320;23.198;2024-03-23T02:01:42;94847.78;;;-0.62;100.00
63097;BME280;49185;42.320;23.198;2024-03-23T02:04:27;94850.13;;;-0.67;100.00
63097;BME280;49185;42.320;23.198;2024-03-23T02:07:13;94849.06;;;-0.58;100.00
63097;BME280;49185;42.320;23.198;2024-03-23T02:09:59;94850.69;;;-0.57;100.00
63097;BME280;49185;42.320;23.198;2024-03-23T02:12:44;94862.03;;;-0.65;100.00
63097;BME280;49185;42.320;23.198;2024-03-23T02:15:30;94857.47;;;-0.71;100.00
63097;BME280;49185;42.320;23.198;2024-03-23T02:18:16;94850.66;;;-0.72;100.00
63097;BME280;49185;42.320;23.198;2024-03-23T02:21:02;94860.75;;;-0.69;100.00
63097;BME280;49185;42.320;23.198;2024-03-23T02:23:48;94859.84;;;-0.76;100.00
63097;BME280;49185;42.320;23.198;2024-03-23T02:26:33;94860.84;;;-0.85;100.00
63097;BME280;49185;42.320;23.198;2024-03-23T02:29:19;94857.03;;;-0.98;100.00
63097;BME280;49185;42.320;23.198;2024-03-23T02:32:05;94865.28;;;-0.86;100.00
63097;BME280;49185;42.320;23.198;2024-03-23T02:34:50;94860.75;;;-0.69;100.00
63097;BME280;49185;42.320;23.198;2024-03-23T02:37:36;94856.69;;;-0.71;100.00
63097;BME280;49185;42.320;23.198;2024-03-23T02:40:23;94859.84;;;-0.76;100.00
63097;BME280;49185;42.320;23.198;2024-03-23T02:43:08;94866.50;;;-0.73;100.00
63097;BME280;49185;42.320;23.198;2024-03-23T02:45:54;94874.09;;;-0.87;100.00
63097;BME280;49185;42.320;23.198;2024-03-23T02:48:40;94865.16;;;-0.92;100.00
63097;BME280;49185;42.320;23.198;2024-03-23T02:51:25;94866.00;;;-0.92;100.00
63097;BME280;49185;42.320;23.198;2024-03-23T02:54:11;94868.84;;;-0.87;100.00
63097;BME280;49185;42.320;23.198;2024-03-23T02:56:57;94867.44;;;-0.89;100.00
63097;BME280;49185;42.320;23.198;2024-03-23T02:59:42;94865.78;;;-1.13;100.00
63097;BME280;49185;42.320;23.198;2024-03-23T03:02:28;94869.09;;;-1.20;100.00
63097;BME280;49185;42.320;23.198;2024-03-23T03:05:14;94864.50;;;-1.18;100.00
63097;BME280;49185;42.320;23.198;2024-03-23T03:07:59;94869.09;;;-1.20;100.00
63097;BME280;49185;42.320;23.198;2024-03-23T03:10:45;94864.19;;;-1.23;100.00
63097;BME280;49185;42.320;23.198;2024-03-23T03:13:30;94871.09;;;-1.30;100.00
63097;BME280;49185;42.320;23.198;2024-03-23T03:16:16;94868.19;;;-1.35;100.00
63097;BME280;49185;42.320;23.198;2024-03-23T03:19:02;94869.13;;;-1.28;100.00
63097;BME280;49185;42.320;23.198;2024-03-23T03:21:47;94863.97;;;-1.36;100.00
63097;BME280;49185;42.320;23.198;2024-03-23T03:24:33;94867.53;;;-1.37;100.00
63097;BME280;49185;42.320;23.198;2024-03-23T03:27:19;94865.41;;;-1.34;100.00
63097;BME280;49185;42.320;23.198;2024-03-23T03:30:05;94869.81;;;-1.34;100.00
63097;BME280;49185;42.320;23.198;2024-03-23T03:32:53;94873.09;;;-1.40;100.00
63097;BME280;49185;42.320;23.198;2024-03-23T03:35:38;94867.84;;;-1.32;100.00
63097;BME280;49185;42.320;23.198;2024-03-23T03:38:24;94868.56;;;-1.46;100.00
63097;BME280;49185;42.320;23.198;2024-03-23T03:41:10;94869.72;;;-1.49;100.00
63097;BME280;49185;42.320;23.198;2024-03-23T03:43:55;94866.44;;;-1.43;100.00
63097;BME280;49185;42.320;23.198;2024-03-23T03:46:41;94864.63;;;-1.42;100.00
63097;BME280;49185;42.320;23.198;2024-03-23T03:49:27;94862.56;;;-1.47;100.00
63097;BME280;49185;42.320;23.198;2024-03-23T03:52:12;94861.72;;;-1.47;100.00
63097;BME280;49185;42.320;23.198;2024-03-23T03:55:02;94866.47;;;-1.51;100.00
63097;BME280;49185;42.320;23.198;2024-03-23T03:57:47;94867.31;;;-1.50;100.00
63097;BME280;49185;42.320;23.198;2024-03-23T04:00:33;94863.69;;;-1.49;100.00
63097;BME280;49185;42.320;23.198;2024-03-23T04:03:19;94873.56;;;-1.37;100.00
63097;BME280;49185;42.320;23.198;2024-03-23T04:06:05;94866.50;;;-1.28;100.00
63097;BME280;49185;42.320;23.198;2024-03-23T04:08:50;94865.22;;;-1.24;100.00
63097;BME280;49185;42.320;23.198;2024-03-23T04:11:36;94867.22;;;-1.34;100.00
63097;BME280;49185;42.320;23.198;2024-03-23T04:14:22;94870.94;;;-1.28;100.00
63097;BME280;49185;42.320;23.198;2024-03-23T04:17:07;94871.44;;;-1.33;100.00
63097;BME280;49185;42.320;23.198;2024-03-23T04:19:53;94862.63;;;-1.32;100.00
63097;BME280;49185;42.320;23.198;2024-03-23T04:22:38;94872.66;;;-1.21;100.00
63097;BME280;49185;42.320;23.198;2024-03-23T04:25:24;94874.44;;;-1.13;100.00
63097;BME280;49185;42.320;23.198;2024-03-23T04:28:10;94869.09;;;-1.20;100.00
63097;BME280;49185;42.320;23.198;2024-03-23T04:30:56;94866.31;;;-1.18;100.00
63097;BME280;49185;42.320;23.198;2024-03-23T04:33:42;94870.81;;;-1.12;100.00
63097;BME280;49185;42.320;23.198;2024-03-23T04:36:27;94868.75;;;-1.17;100.00
63097;BME280;49185;42.320;23.198;2024-03-23T04:39:13;94866.41;;;-1.35;100.00
63097;BME280;49185;42.320;23.198;2024-03-23T04:41:58;94873.72;;;-1.30;100.00
63097;BME280;49185;42.320;23.198;2024-03-23T04:44:44;94873.59;;;-1.13;100.00
63097;BME280;49185;42.320;23.198;2024-03-23T04:47:30;94870.53;;;-0.94;100.00
63097;BME280;49185;42.320;23.198;2024-03-23T04:50:15;94871.59;;;-0.80;100.00
63097;BME280;49185;42.320;23.198;2024-03-23T04:53:01;94871.19;;;-0.69;100.00
63097;BME280;49185;42.320;23.198;2024-03-23T04:55:47;94873.84;;;-0.54;100.00
63097;BME280;49185;42.320;23.198;2024-03-23T04:58:32;94884.31;;;-0.54;100.00
63097;BME280;49185;42.320;23.198;2024-03-23T05:01:18;94874.06;;;-0.41;100.00
63097;BME280;49185;42.320;23.198;2024-03-23T05:04:04;94876.69;;;-0.41;100.00
63097;BME280;49185;42.320;23.198;2024-03-23T05:06:50;94879.31;;;-0.41;100.00
63097;BME280;49185;42.320;23.198;2024-03-23T05:09:35;94881.53;;;-0.38;100.00
63097;BME280;49185;42.320;23.198;2024-03-23T05:12:21;94879.16;;;-0.24;100.00
63097;BME280;49185;42.320;23.198;2024-03-23T05:15:07;94884.56;;;-0.11;100.00
63097;BME280;49185;42.320;23.198;2024-03-23T05:17:52;94884.03;;;-0.21;100.00
63097;BME280;49185;42.320;23.198;2024-03-23T05:20:38;94887.19;;;-0.11;100.00
63097;BME280;49185;42.320;23.198;2024-03-23T05:23:24;94884.78;;;-0.12;100.00
63097;BME280;49185;42.320;23.198;2024-03-23T05:26:10;94880.91;;;-0.02;100.00
63097;BME280;49185;42.320;23.198;2024-03-23T05:28:56;94880.44;;;0.25;100.00
63097;BME280;49185;42.320;23.198;2024-03-23T05:31:42;94886.84;;;0.37;100.00
63097;BME280;49185;42.320;23.198;2024-03-23T05:34:27;94881.25;;;0.40;100.00
63097;BME280;49185;42.320;23.198;2024-03-23T05:37:13;94892.16;;;0.73;100.00
63097;BME280;49185;42.320;23.198;2024-03-23T05:39:58;94895.84;;;1.16;100.00
63097;BME280;49185;42.320;23.198;2024-03-23T05:42:44;94890.59;;;1.59;100.00
63097;BME280;49185;42.320;23.198;2024-03-23T05:45:30;94901.13;;;1.87;100.00
63097;BME280;49185;42.320;23.198;2024-03-23T05:48:15;94900.69;;;2.40;100.00
63097;BME280;49185;42.320;23.198;2024-03-23T05:51:01;94897.25;;;3.49;100.00
63097;BME280;49185;42.320;23.198;2024-03-23T05:53:47;94896.25;;;4.17;100.00
63097;BME280;49185;42.320;23.198;2024-03-23T05:56:33;94903.19;;;4.83;100.00
63097;BME280;49185;42.320;23.198;2024-03-23T05:59:18;94901.88;;;5.83;95.73
63097;BME280;49185;42.320;23.198;2024-03-23T06:02:04;94897.50;;;5.95;94.25
63097;BME280;49185;42.320;23.198;2024-03-23T06:04:50;94907.28;;;6.20;92.12
63097;BME280;49185;42.320;23.198;2024-03-23T06:07:35;94898.94;;;5.91;93.72
63097;BME280;49185;42.320;23.198;2024-03-23T06:10:21;94898.16;;;6.16;90.62
63097;BME280;49185;42.320;23.198;2024-03-23T06:13:06;94897.06;;;7.04;87.38
63097;BME280;49185;42.320;23.198;2024-03-23T06:15:52;94899.06;;;6.72;88.62
63097;BME280;49185;42.320;23.198;2024-03-23T06:18:39;94900.78;;;7.33;85.21
63097;BME280;49185;42.320;23.198;2024-03-23T06:21:24;94902.34;;;7.95;82.83
63097;BME280;49185;42.320;23.198;2024-03-23T06:24:13;94898.72;;;8.55;82.05
63097;BME280;49185;42.320;23.198;2024-03-23T06:26:59;94900.59;;;8.54;75.75
63097;BME280;49185;42.320;23.198;2024-03-23T06:29:44;94900.69;;;9.36;72.10
63097;BME280;49185;42.320;23.198;2024-03-23T06:32:30;94898.56;;;9.49;71.19
63097;BME280;49185;42.320;23.198;2024-03-23T06:35:15;94896.19;;;8.72;75.93
63097;BME280;49185;42.320;23.198;2024-03-23T06:38:01;94909.34;;;10.05;68.60
63097;BME280;49185;42.320;23.198;2024-03-23T06:40:47;94905.88;;;10.05;69.37
63097;BME280;49185;42.320;23.198;2024-03-23T06:43:32;94913.16;;;9.81;69.30
63097;BME280;49185;42.320;23.198;2024-03-23T06:46:18;94906.38;;;9.56;70.15
63097;BME280;49185;42.320;23.198;2024-03-23T06:49:04;94913.22;;;9.98;68.63
63097;BME280;49185;42.320;23.198;2024-03-23T06:51:50;94909.25;;;9.83;69.49
63097;BME280;49185;42.320;23.198;2024-03-23T06:54:35;94909.25;;;10.00;68.15
63097;BME280;49185;42.320;23.198;2024-03-23T06:57:21;94914.31;;;11.04;65.17
63097;BME280;49185;42.320;23.198;2024-03-23T07:00:07;94905.19;;;10.60;68.07
63097;BME280;49185;42.320;23.198;2024-03-23T07:02:53;94911.16;;;11.29;66.23
63097;BME280;49185;42.320;23.198;2024-03-23T07:05:38;94906.75;;;11.17;65.86
63097;BME280;49185;42.320;23.198;2024-03-23T07:08:24;94901.59;;;9.87;72.09
63097;BME280;49185;42.320;23.198;2024-03-23T07:11:10;94896.88;;;11.40;68.21
63097;BME280;49185;42.320;23.198;2024-03-23T07:13:56;94897.88;;;10.51;69.68
63097;BME280;49185;42.320;23.198;2024-03-23T07:16:41;94894.72;;;11.15;67.80
63097;BME280;49185;42.320;23.198;2024-03-23T07:19:27;94886.59;;;9.81;75.96
63097;BME280;49185;42.320;23.198;2024-03-23T07:22:13;94890.97;;;12.14;66.06
63097;BME280;49185;42.320;23.198;2024-03-23T07:25:02;94891.34;;;11.69;67.57
63097;BME280;49185;42.320;23.198;2024-03-23T07:27:47;94891.78;;;11.33;67.19
63097;BME280;49185;42.320;23.198;2024-03-23T07:30:33;94883.16;;;11.26;66.31
63097;BME280;49185;42.320;23.198;2024-03-23T07:33:19;94876.84;;;11.59;66.55
63097;BME280;49185;42.320;23.198;2024-03-23T07:36:05;94880.28;;;12.42;61.37
63097;BME280;49185;42.320;23.198;2024-03-23T07:38:50;94888.53;;;12.40;62.32
63097;BME280;49185;42.320;23.198;2024-03-23T07:41:36;94878.63;;;11.76;66.36
63097;BME280;49185;42.320;23.198;2024-03-23T07:44:22;94877.06;;;11.80;67.41
63097;BME280;49185;42.320;23.198;2024-03-23T07:47:07;94880.94;;;12.27;64.68
63097;BME280;49185;42.320;23.198;2024-03-23T07:49:53;94877.38;;;12.91;61.76
63097;BME280;49185;42.320;23.198;2024-03-23T07:52:39;94874.41;;;11.53;67.10
63097;BME280;49185;42.320;23.198;2024-03-23T07:55:24;94868.81;;;12.41;61.60
63097;BME280;49185;42.320;23.198;2024-03-23T07:58:10;94867.84;;;12.20;65.53
63097;BME280;49185;42.320;23.198;2024-03-23T08:00:56;94874.69;;;12.86;60.63
63097;BME280;49185;42.320;23.198;2024-03-23T08:03:49;94871.19;;;12.85;61.72
63097;BME280;49185;42.320;23.198;2024-03-23T08:06:35;94875.31;;;12.23;64.17
63097;BME280;49185;42.320;23.198;2024-03-23T08:09:20;94870.69;;;12.46;60.29
63097;BME280;49185;42.320;23.198;2024-03-23T08:12:06;94866.88;;;11.99;64.29
63097;BME280;49185;42.320;23.198;2024-03-23T08:14:52;94863.47;;;11.82;63.60
63097;BME280;49185;42.320;23.198;2024-03-23T08:17:38;94867.84;;;12.58;59.56
63097;BME280;49185;42.320;23.198;2024-03-23T08:20:23;94876.56;;;12.48;60.41
63097;BME280;49185;42.320;23.198;2024-03-23T08:23:09;94867.72;;;12.05;61.20
63097;BME280;49185;42.320;23.198;2024-03-23T08:25:58;94862.06;;;12.76;58.86
63097;BME280;49185;42.320;23.198;2024-03-23T08:28:44;94862.19;;;13.02;60.02
63097;BME280;49185;42.320;23.198;2024-03-23T08:31:30;94865.75;;;13.18;56.08
63097;BME280;49185;42.320;23.198;2024-03-23T08:34:16;94863.38;;;13.26;57.70
63097;BME280;49185;42.320;23.198;2024-03-23T08:37:01;94860.44;;;13.28;54.71
63097;BME280;49185;42.320;23.198;2024-03-23T08:39:47;94851.53;;;13.07;58.14
63097;BME280;49185;42.320;23.198;2024-03-23T08:42:33;94853.09;;;13.76;54.29
63097;BME280;49185;42.320;23.198;2024-03-23T08:45:18;94858.47;;;13.81;51.72
63097;BME280;49185;42.320;23.198;2024-03-23T08:48:04;94853.94;;;13.97;53.84
63097;BME280;49185;42.320;23.198;2024-03-23T08:51:07;94851.25;;;14.18;52.43
63097;BME280;49185;42.320;23.198;2024-03-23T08:53:52;94850.16;;;13.93;49.66
63097;BME280;49185;42.320;23.198;2024-03-23T08:56:38;94840.53;;;13.87;52.42
63097;BME280;49185;42.320;23.198;2024-03-23T08:59:24;94840.53;;;14.08;48.86
63097;BME280;49185;42.320;23.198;2024-03-23T09:02:09;94831.41;;;14.50;46.36
63097;BME280;49185;42.320;23.198;2024-03-23T09:04:55;94822.63;;;13.88;48.13
63097;BME280;49185;42.320;23.198;2024-03-23T09:07:41;94827.69;;;14.20;50.16
63097;BME280;49185;42.320;23.198;2024-03-23T09:10:26;94818.34;;;14.28;47.03
63097;BME280;49185;42.320;23.198;2024-03-23T09:13:12;94816.41;;;14.69;47.73
63097;BME280;49185;42.320;23.198;2024-03-23T09:15:58;94815.75;;;15.03;46.09
63097;BME280;49185;42.320;23.198;2024-03-23T09:18:43;94803.50;;;14.87;47.58
63097;BME280;49185;42.320;23.198;2024-03-23T09:21:29;94798.66;;;14.94;48.17
63097;BME280;49185;42.320;23.198;2024-03-23T09:24:15;94794.97;;;15.40;46.91
63097;BME280;49185;42.320;23.198;2024-03-23T09:27:01;94788.31;;;14.51;47.78
63097;BME280;49185;42.320;23.198;2024-03-23T09:29:47;94783.84;;;15.62;47.83
63097;BME280;49185;42.320;23.198;2024-03-23T09:32:33;94784.69;;;15.02;47.73
63097;BME280;49185;42.320;23.198;2024-03-23T09:35:19;94776.47;;;15.38;47.18
63097;BME280;49185;42.320;23.198;2024-03-23T09:38:05;94777.50;;;15.42;44.83
63097;BME280;49185;42.320;23.198;2024-03-23T09:40:53;94763.16;;;15.23;46.77
63097;BME280;49185;42.320;23.198;2024-03-23T09:43:39;94760.53;;;15.57;45.58
63097;BME280;49185;42.320;23.198;2024-03-23T09:46:24;94764.19;;;16.06;43.44
63097;BME280;49185;42.320;23.198;2024-03-23T09:49:10;94757.09;;;15.91;45.05
63097;BME280;49185;42.320;23.198;2024-03-23T09:51:56;94754.41;;;15.91;45.11
63097;BME280;49185;42.320;23.198;2024-03-23T09:54:42;94742.22;;;16.04;43.87
63097;BME280;49185;42.320;23.198;2024-03-23T09:57:27;94741.41;;;15.69;43.06
63097;BME280;49185;42.320;23.198;2024-03-23T10:00:13;94736.28;;;15.78;43.60
63097;BME280;49185;42.320;23.198;2024-03-23T10:02:59;94733.88;;;15.76;45.84
63097;BME280;49185;42.320;23.198;2024-03-23T10:05:45;94728.59;;;15.95;44.24
63097;BME280;49185;42.320;23.198;2024-03-23T10:08:31;94731.06;;;15.52;43.69
63097;BME280;49185;42.320;23.198;2024-03-23T10:11:17;94732.22;;;15.41;42.53
63097;BME280;49185;42.320;23.198;2024-03-23T10:14:02;94721.13;;;15.52;46.01
63097;BME280;49185;42.320;23.198;2024-03-23T10:16:48;94716.91;;;15.46;42.76
63097;BME280;49185;42.320;23.198;2024-03-23T10:19:34;94708.41;;;16.03;44.04
63097;BME280;49185;42.320;23.198;2024-03-23T10:22:21;94706.31;;;16.48;44.05
63097;BME280;49185;42.320;23.198;2024-03-23T10:25:08;94708.72;;;16.25;42.55
63097;BME280;49185;42.320;23.198;2024-03-23T10:28:00;94699.59;;;16.50;41.90
63097;BME280;49185;42.320;23.198;2024-03-23T10:30:46;94692.03;;;16.04;37.29
63097;BME280;49185;42.320;23.198;2024-03-23T10:33:32;94693.38;;;16.02;38.24
63097;BME280;49185;42.320;23.198;2024-03-23T10:36:19;94685.88;;;16.52;41.60
63097;BME280;49185;42.320;23.198;2024-03-23T10:39:07;94680.09;;;17.07;39.66
63097;BME280;49185;42.320;23.198;2024-03-23T10:41:53;94674.50;;;16.12;37.68
63097;BME280;49185;42.320;23.198;2024-03-23T10:44:41;94675.59;;;16.35;39.24
63097;BME280;49185;42.320;23.198;2024-03-23T10:47:27;94669.00;;;16.95;35.78
63097;BME280;49185;42.320;23.198;2024-03-23T10:50:12;94673.19;;;16.58;41.09
63097;BME280;49185;42.320;23.198;2024-03-23T10:52:58;94662.50;;;16.52;39.33
63097;BME280;49185;42.320;23.198;2024-03-23T10:55:44;94655.56;;;16.95;35.85
63097;BME280;49185;42.320;23.198;2024-03-23T10:58:43;94645.06;;;17.31;38.00
63097;BME280;49185;42.320;23.198;2024-03-23T11:01:29;94649.78;;;17.01;34.93
63097;BME280;49185;42.320;23.198;2024-03-23T11:04:47;94646.63;;;17.51;33.63
63097;BME280;49185;42.320;23.198;2024-03-23T11:07:33;94635.78;;;17.23;35.26
63097;BME280;49185;42.320;23.198;2024-03-23T11:10:31;94636.09;;;16.84;32.57
63097;BME280;49185;42.320;23.198;2024-03-23T11:13:26;94626.78;;;17.14;33.07
63097;BME280;49185;42.320;23.198;2024-03-23T11:19:37;94604.09;;;17.53;32.17
63097;BME280;49185;42.320;23.198;2024-03-23T11:22:44;94603.31;;;17.67;31.85
63097;BME280;49185;42.320;23.198;2024-03-23T11:25:30;94608.69;;;17.99;28.94
63097;BME280;49185;42.320;23.198;2024-03-23T11:28:16;94599.16;;;17.74;28.71
63097;BME280;49185;42.320;23.198;2024-03-23T11:31:27;94595.22;;;17.99;24.02
63097;BME280;49185;42.320;23.198;2024-03-23T11:34:19;94588.25;;;18.12;29.08
63097;BME280;49185;42.320;23.198;2024-03-23T11:37:23;94582.81;;;17.71;29.66
63097;BME280;49185;42.320;23.198;2024-03-23T11:40:44;94579.88;;;18.00;26.10
63097;BME280;49185;42.320;23.198;2024-03-23T11:43:32;94573.41;;;18.01;28.12
63097;BME280;49185;42.320;23.198;2024-03-23T11:46:24;94570.81;;;18.10;26.90
63097;BME280;49185;42.320;23.198;2024-03-23T11:49:26;94559.00;;;18.47;28.24
63097;BME280;49185;42.320;23.198;2024-03-23T11:52:12;94553.63;;;18.33;26.85
63097;BME280;49185;42.320;23.198;2024-03-23T11:55:05;94550.34;;;18.23;25.97
63097;BME280;49185;42.320;23.198;2024-03-23T11:57:50;94541.88;;;18.01;28.90
63097;BME280;49185;42.320;23.198;2024-03-23T12:00:36;94537.97;;;17.19;30.74
63097;BME280;49185;42.320;23.198;2024-03-23T12:03:23;94531.81;;;17.33;28.53
63097;BME280;49185;42.320;23.198;2024-03-23T12:06:08;94524.56;;;17.00;30.66
63097;BME280;49185;42.320;23.198;2024-03-23T12:09:05;94524.53;;;16.86;33.65
63097;BME280;49185;42.320;23.198;2024-03-23T12:11:51;94515.59;;;16.72;29.44
63097;BME280;49185;42.320;23.198;2024-03-23T12:14:36;94508.53;;;16.57;31.25
63097;BME280;49185;42.320;23.198;2024-03-23T12:17:22;94495.75;;;16.87;32.84
63097;BME280;49185;42.320;23.198;2024-03-23T12:20:08;94499.06;;;16.84;30.64
63097;BME280;49185;42.320;23.198;2024-03-23T12:23:05;94493.31;;;17.04;29.28
63097;BME280;49185;42.320;23.198;2024-03-23T12:26:15;94488.31;;;16.84;29.46
63097;BME280;49185;42.320;23.198;2024-03-23T12:29:01;94480.94;;;16.89;30.48
63097;BME280;49185;42.320;23.198;2024-03-23T12:31:47;94482.66;;;16.99;30.49
63097;BME280;49185;42.320;23.198;2024-03-23T12:34:33;94474.38;;;16.63;27.78
63097;BME280;49185;42.320;23.198;2024-03-23T12:37:18;94471.59;;;16.68;29.76
63097;BME280;49185;42.320;23.198;2024-03-23T12:40:04;94466.09;;;16.59;28.19
63097;BME280;49185;42.320;23.198;2024-03-23T12:42:50;94457.25;;;16.40;27.01
63097;BME280;49185;42.320;23.198;2024-03-23T12:45:36;94458.78;;;16.27;26.73
63097;BME280;49185;42.320;23.198;2024-03-23T12:48:22;94454.28;;;16.22;24.83
63097;BME280;49185;42.320;23.198;2024-03-23T12:51:08;94448.13;;;16.03;27.58
63097;BME280;49185;42.320;23.198;2024-03-23T12:53:53;94443.09;;;16.34;26.20
63097;BME280;49185;42.320;23.198;2024-03-23T12:56:39;94432.47;;;16.62;28.19
63097;BME280;49185;42.320;23.198;2024-03-23T12:59:25;94436.22;;;16.47;25.45
63097;BME280;49185;42.320;23.198;2024-03-23T13:02:10;94432.88;;;16.17;29.92
63097;BME280;49185;42.320;23.198;2024-03-23T13:04:56;94425.75;;;16.45;31.08
63097;BME280;49185;42.320;23.198;2024-03-23T13:07:42;94419.66;;;16.40;27.59
63097;BME280;49185;42.320;23.198;2024-03-23T13:10:27;94418.69;;;16.49;26.55
63097;BME280;49185;42.320;23.198;2024-03-23T13:13:13;94409.81;;;16.16;30.04
63097;BME280;49185;42.320;23.198;2024-03-23T13:15:58;94404.75;;;15.96;30.12
63097;BME280;49185;42.320;23.198;2024-03-23T13:18:44;94399.78;;;16.22;30.08
63097;BME280;49185;42.320;23.198;2024-03-23T13:21:30;94397.09;;;16.22;29.55
63097;BME280;49185;42.320;23.198;2024-03-23T13:24:15;94395.25;;;16.22;32.08
63097;BME280;49185;42.320;23.198;2024-03-23T13:27:01;94383.25;;;16.14;29.82
63097;BME280;49185;42.320;23.198;2024-03-23T13:29:47;94375.66;;;15.84;31.14
63097;BME280;49185;42.320;23.198;2024-03-23T13:32:32;94388.72;;;15.90;30.85
63097;BME280;49185;42.320;23.198;2024-03-23T13:35:18;94381.47;;;16.10;30.27
63097;BME280;49185;42.320;23.198;2024-03-23T13:38:04;94378.78;;;15.91;27.17
63097;BME280;49185;42.320;23.198;2024-03-23T13:40:56;94374.34;;;16.00;32.20
63097;BME280;49185;42.320;23.198;2024-03-23T13:43:42;94371.59;;;15.86;30.57
63097;BME280;49185;42.320;23.198;2024-03-23T13:46:28;94368.19;;;16.00;30.17
63097;BME280;49185;42.320;23.198;2024-03-23T13:49:27;94360.44;;;15.98;32.51
63097;BME280;49185;42.320;23.198;2024-03-23T13:52:13;94347.84;;;15.80;33.77
63097;BME280;49185;42.320;23.198;2024-03-23T13:54:58;94352.16;;;15.75;30.50
63097;BME280;49185;42.320;23.198;2024-03-23T13:57:44;94356.75;;;15.94;31.76
63097;BME280;49185;42.320;23.198;2024-03-23T14:00:29;94344.78;;;15.86;31.43
63097;BME280;49185;42.320;23.198;2024-03-23T14:03:15;94346.56;;;15.72;31.37
63097;BME280;49185;42.320;23.198;2024-03-23T14:06:01;94342.69;;;15.83;32.10
63097;BME280;49185;42.320;23.198;2024-03-23T14:08:49;94334.91;;;16.01;33.38
63097;BME280;49185;42.320;23.198;2024-03-23T14:11:35;94335.72;;;16.01;32.97
63097;BME280;49185;42.320;23.198;2024-03-23T14:14:21;94335.72;;;16.01;34.20
63097;BME280;49185;42.320;23.198;2024-03-23T14:17:07;94330.44;;;15.77;31.59
63097;BME280;49185;42.320;23.198;2024-03-23T14:19:52;94332.28;;;15.57;32.22
63097;BME280;49185;42.320;23.198;2024-03-23T14:22:18;94326.84;;;15.63;34.19
63097;BME280;49185;42.320;23.198;2024-03-23T14:24:43;94320.84;;;15.71;34.64
63097;BME280;49185;42.320;23.198;2024-03-23T14:27:09;94316.19;;;15.57;34.11
63097;BME280;49185;42.320;23.198;2024-03-23T14:29:34;94317.06;;;15.72;33.29
63097;BME280;49185;42.320;23.198;2024-03-23T14:31:59;94320.56;;;15.72;34.42
63097;BME280;49185;42.320;23.198;2024-03-23T14:34:26;94320.13;;;15.84;36.69
63097;BME280;49185;42.320;23.198;2024-03-23T14:36:51;94314.63;;;15.75;36.63
63097;BME280;49185;42.320;23.198;2024-03-23T14:39:16;94313.53;;;15.77;34.20
63097;BME280;49185;42.320;23.198;2024-03-23T14:41:42;94311.69;;;15.72;35.03
63097;BME280;49185;42.320;23.198;2024-03-23T14:44:07;94312.94;;;15.61;35.06
63097;BME280;49185;42.320;23.198;2024-03-23T14:46:32;94299.25;;;15.62;33.87
63097;BME280;49185;42.320;23.198;2024-03-23T14:48:58;94306.25;;;15.58;36.33
63097;BME280;49185;42.320;23.198;2024-03-23T14:51:23;94296.41;;;15.53;35.50
63097;BME280;49185;42.320;23.198;2024-03-23T14:53:49;94294.31;;;15.50;34.78
63097;BME280;49185;42.320;23.198;2024-03-23T14:56:14;94292.94;;;15.53;34.94
63097;BME280;49185;42.320;23.198;2024-03-23T14:58:39;94287.28;;;15.54;36.42
63097;BME280;49185;42.320;23.198;2024-03-23T15:01:06;94291.69;;;15.45;35.72
63097;BME280;49185;42.320;23.198;2024-03-23T15:03:32;94290.84;;;15.50;35.55
63097;BME280;49185;42.320;23.198;2024-03-23T15:05:59;94289.84;;;15.46;37.71
63097;BME280;49185;42.320;23.198;2024-03-23T15:08:24;94286.47;;;15.35;37.60
63097;BME280;49185;42.320;23.198;2024-03-23T15:10:50;94280.16;;;15.26;37.24
63097;BME280;49185;42.320;23.198;2024-03-23T15:13:15;94280.75;;;15.23;38.63
63097;BME280;49185;42.320;23.198;2024-03-23T15:15:42;94281.84;;;15.22;39.79
63097;BME280;49185;42.320;23.198;2024-03-23T15:18:07;94274.88;;;15.21;40.61